createdAt,value
2023-12-24T00:01:15.019Z,9.68
2023-12-24T00:03:42.056Z,9.71
2023-12-24T00:06:09.236Z,9.67
2023-12-24T00:08:36.596Z,9.78
2023-12-24T00:11:03.884Z,9.70
2023-12-24T00:13:32.896Z,10.00
2023-12-24T00:15:59.603Z,9.83
2023-12-24T00:18:27.218Z,9.83
2023-12-24T00:20:54.298Z,9.78
2023-12-24T00:23:20.912Z,9.75
2023-12-24T00:25:47.546Z,9.80
2023-12-24T00:28:14.440Z,9.72
2023-12-24T00:30:41.295Z,9.65
2023-12-24T00:33:08.700Z,9.76
2023-12-24T00:35:36.809Z,9.84
2023-12-24T00:38:04.497Z,9.79
2023-12-24T00:40:32.061Z,9.91
2023-12-24T00:42:58.463Z,9.83
2023-12-24T00:45:25.140Z,9.78
2023-12-24T00:47:52.203Z,9.77
2023-12-24T00:50:20.415Z,9.84
2023-12-24T00:52:47.827Z,9.79
2023-12-24T00:55:14.717Z,9.83
2023-12-24T00:57:42.174Z,10.10
2023-12-24T01:00:09.381Z,9.83
2023-12-24T01:02:37.260Z,9.79
2023-12-24T01:05:05.902Z,9.66
2023-12-24T01:07:33.120Z,9.80
2023-12-24T01:09:59.695Z,9.70
2023-12-24T01:12:26.247Z,9.84
2023-12-24T01:14:52.836Z,9.99
2023-12-24T01:17:19.771Z,10.05
2023-12-24T01:19:46.707Z,9.90
2023-12-24T01:22:13.376Z,10.11
2023-12-24T01:24:40.132Z,10.03
2023-12-24T01:27:07.161Z,9.90
2023-12-24T01:29:34.026Z,9.83
2023-12-24T01:32:00.720Z,9.88
2023-12-24T01:34:27.429Z,10.09
2023-12-24T01:36:54.583Z,9.89
2023-12-24T01:39:21.689Z,9.80
2023-12-24T01:41:49.037Z,9.98
2023-12-24T01:44:15.846Z,9.91
2023-12-24T01:46:42.890Z,9.88
2023-12-24T01:49:09.606Z,9.82
2023-12-24T01:51:36.422Z,10.01
2023-12-24T01:54:04.805Z,9.92
2023-12-24T01:56:33.131Z,9.99
2023-12-24T01:59:00.510Z,9.98
2023-12-24T02:01:27.954Z,9.84
2023-12-24T02:03:55.027Z,10.00
2023-12-24T02:06:23.226Z,10.04
2023-12-24T02:08:50.764Z,9.94
2023-12-24T02:11:17.751Z,9.96
2023-12-24T02:13:45.511Z,10.15
2023-12-24T02:16:12.952Z,9.98
2023-12-24T02:18:39.975Z,10.00
2023-12-24T02:21:06.804Z,9.93
2023-12-24T02:23:33.519Z,9.85
2023-12-24T02:26:25.444Z,9.86
2023-12-24T02:28:57.480Z,9.90
2023-12-24T02:31:27.636Z,10.11
2023-12-24T02:33:57.879Z,9.88
2023-12-24T02:36:25.564Z,9.86
2023-12-24T02:38:52.366Z,9.76
2023-12-24T02:41:19.087Z,9.77
2023-12-24T02:43:45.695Z,9.85
2023-12-24T02:46:12.469Z,9.82
2023-12-24T02:48:39.274Z,10.00
2023-12-24T02:51:06.627Z,9.92
2023-12-24T02:53:33.247Z,10.13
2023-12-24T02:56:01.139Z,10.00
2023-12-24T02:58:29.156Z,9.93
2023-12-24T03:00:56.066Z,9.83
2023-12-24T03:03:22.795Z,9.90
2023-12-24T03:05:49.514Z,9.89
2023-12-24T03:08:16.820Z,10.09
2023-12-24T03:10:43.404Z,10.06
2023-12-24T03:13:10.271Z,10.00
2023-12-24T03:15:36.908Z,10.00
2023-12-24T03:18:04.306Z,9.90
2023-12-24T03:20:31.071Z,9.85
2023-12-24T03:22:57.630Z,9.85
2023-12-24T03:25:24.555Z,9.93
2023-12-24T03:27:50.988Z,9.87
2023-12-24T03:30:18.836Z,9.94
2023-12-24T03:32:46.302Z,9.89
2023-12-24T03:35:13.516Z,9.80
2023-12-24T03:37:40.074Z,9.81
2023-12-24T03:40:07.591Z,9.79
2023-12-24T03:42:34.384Z,9.71
2023-12-24T03:45:00.926Z,9.86
2023-12-24T03:47:27.719Z,9.83
2023-12-24T03:49:54.503Z,9.95
2023-12-24T03:52:21.614Z,9.68
2023-12-24T03:54:48.403Z,9.76
2023-12-24T03:57:15.220Z,9.76
2023-12-24T03:59:42.025Z,9.68
2023-12-24T04:02:08.920Z,9.55
2023-12-24T04:04:35.513Z,9.54
2023-12-24T04:07:02.101Z,9.72
2023-12-24T04:09:30.989Z,9.57
2023-12-24T04:11:57.728Z,9.56
2023-12-24T04:14:24.500Z,9.52
2023-12-24T04:16:51.036Z,9.43
2023-12-24T04:19:18.127Z,9.31
2023-12-24T04:21:44.872Z,9.21
2023-12-24T04:24:11.434Z,9.18
2023-12-24T04:26:38.415Z,9.38
2023-12-24T04:29:05.466Z,9.24
2023-12-24T04:31:32.251Z,9.22
2023-12-24T04:33:58.902Z,9.19
2023-12-24T04:36:25.609Z,9.23
2023-12-24T04:38:52.364Z,9.29
2023-12-24T04:41:19.705Z,9.24
2023-12-24T04:43:46.861Z,9.10
2023-12-24T04:46:13.383Z,9.13
2023-12-24T04:48:40.549Z,9.24
2023-12-24T04:51:07.584Z,9.35
2023-12-24T04:53:34.213Z,9.04
2023-12-24T04:56:00.890Z,9.18
2023-12-24T04:58:27.936Z,9.14
2023-12-24T05:00:54.619Z,8.93
2023-12-24T05:03:21.239Z,8.90
2023-12-24T05:05:47.818Z,8.84
2023-12-24T05:08:14.881Z,8.96
2023-12-24T05:10:42.426Z,8.95
2023-12-24T05:13:11.741Z,9.00
2023-12-24T05:15:38.248Z,9.01
2023-12-24T05:18:05.086Z,8.95
2023-12-24T05:20:31.651Z,9.05
2023-12-24T05:22:58.424Z,8.87
2023-12-24T05:25:25.342Z,8.74
2023-12-24T05:27:52.466Z,8.78
2023-12-24T05:30:19.125Z,8.94
2023-12-24T05:32:46.425Z,8.98
2023-12-24T05:35:13.085Z,8.85
2023-12-24T05:37:39.713Z,8.79
2023-12-24T05:40:06.882Z,8.91
2023-12-24T05:42:33.736Z,8.92
2023-12-24T05:45:00.802Z,8.87
2023-12-24T05:47:27.641Z,8.72
2023-12-24T05:49:54.203Z,8.68
2023-12-24T05:52:20.859Z,8.68
2023-12-24T05:54:47.565Z,8.62
2023-12-24T05:57:14.164Z,8.64
2023-12-24T05:59:40.783Z,8.71
2023-12-24T06:02:07.706Z,8.61
2023-12-24T06:04:34.211Z,8.60
2023-12-24T06:07:02.487Z,8.73
2023-12-24T06:09:29.403Z,8.67
2023-12-24T06:11:56.427Z,8.57
2023-12-24T06:14:22.913Z,8.64
2023-12-24T06:16:49.644Z,8.61
2023-12-24T06:19:18.237Z,8.62
2023-12-24T06:21:45.162Z,8.74
2023-12-24T06:24:12.352Z,8.81
2023-12-24T06:26:40.365Z,9.03
2023-12-24T06:29:07.021Z,8.96
2023-12-24T06:31:34.704Z,8.88
2023-12-24T06:34:01.396Z,8.77
2023-12-24T06:36:28.001Z,8.77
2023-12-24T06:38:54.759Z,8.69
2023-12-24T06:41:23.165Z,8.57
2023-12-24T06:43:49.618Z,8.55
2023-12-24T06:46:16.701Z,8.57
2023-12-24T06:48:43.301Z,8.71
2023-12-24T06:51:10.081Z,8.66
2023-12-24T06:53:37.694Z,8.70
2023-12-24T06:56:05.650Z,8.58
2023-12-24T06:58:32.494Z,8.74
2023-12-24T07:00:59.624Z,8.90
2023-12-24T07:03:26.339Z,8.78
2023-12-24T07:05:54.838Z,8.91
2023-12-24T07:08:24.490Z,9.01
2023-12-24T07:10:51.080Z,9.06
2023-12-24T07:13:17.828Z,9.11
2023-12-24T07:15:44.529Z,9.17
2023-12-24T07:18:11.384Z,9.21
2023-12-24T07:20:38.358Z,9.19
2023-12-24T07:23:05.504Z,9.10
2023-12-24T07:25:32.161Z,9.47
2023-12-24T07:27:58.626Z,9.39
2023-12-24T07:30:25.422Z,9.24
2023-12-24T07:32:52.821Z,9.13
2023-12-24T07:35:19.934Z,9.22
2023-12-24T07:37:48.353Z,9.35
2023-12-24T07:40:15.136Z,9.19
2023-12-24T07:42:41.859Z,9.27
2023-12-24T07:45:09.010Z,9.48
2023-12-24T07:47:35.812Z,9.32
2023-12-24T07:50:02.513Z,9.31
2023-12-24T07:52:29.621Z,9.31
2023-12-24T07:54:56.317Z,9.36
2023-12-24T07:57:22.935Z,9.42
2023-12-24T07:59:49.398Z,9.52
2023-12-24T08:02:16.100Z,9.54
2023-12-24T08:04:45.209Z,9.65
2023-12-24T08:07:11.957Z,9.61
2023-12-24T08:09:39.312Z,9.68
2023-12-24T08:12:06.585Z,9.74
2023-12-24T08:14:33.258Z,9.88
2023-12-24T08:16:59.922Z,9.78
2023-12-24T08:19:26.823Z,9.70
2023-12-24T08:21:53.780Z,9.90
2023-12-24T08:24:20.219Z,9.94
2023-12-24T08:26:46.770Z,9.82
2023-12-24T08:29:13.373Z,9.82
2023-12-24T08:31:39.920Z,9.92
2023-12-24T08:34:06.678Z,9.79
2023-12-24T08:36:33.233Z,9.81
2023-12-24T08:39:00.838Z,9.90
2023-12-24T08:41:27.443Z,9.94
2023-12-24T08:43:54.258Z,10.07
2023-12-24T08:46:21.005Z,10.00
2023-12-24T08:48:48.238Z,10.07
2023-12-24T08:51:14.925Z,10.11
2023-12-24T08:53:42.073Z,10.11
2023-12-24T08:56:08.578Z,10.33
2023-12-24T08:58:35.674Z,10.35
2023-12-24T09:01:02.776Z,10.23
2023-12-24T09:03:29.741Z,10.17
2023-12-24T09:05:56.824Z,10.24
2023-12-24T09:08:23.516Z,10.24
2023-12-24T09:10:50.157Z,10.30
2023-12-24T09:13:17.911Z,10.19
2023-12-24T09:15:45.554Z,10.65
2023-12-24T09:18:12.250Z,11.35
2023-12-24T09:20:39.060Z,11.02
2023-12-24T09:23:05.850Z,11.08
2023-12-24T09:25:32.876Z,10.63
2023-12-24T09:27:59.501Z,10.54
2023-12-24T09:30:26.097Z,10.50
2023-12-24T09:32:53.021Z,10.41
2023-12-24T09:35:19.921Z,10.38
2023-12-24T09:37:46.621Z,10.35
2023-12-24T09:40:13.291Z,10.41
2023-12-24T09:42:41.469Z,10.65
2023-12-24T09:45:08.669Z,10.52
2023-12-24T09:47:35.813Z,10.51
2023-12-24T09:50:02.884Z,10.57
2023-12-24T09:52:33.399Z,10.56
2023-12-24T09:55:00.547Z,10.59
2023-12-24T09:57:27.198Z,10.68
2023-12-24T09:59:54.302Z,10.65
2023-12-24T10:02:21.055Z,10.73
2023-12-24T10:04:48.024Z,10.79
2023-12-24T10:07:14.750Z,10.79
2023-12-24T10:09:47.994Z,10.83
2023-12-24T10:12:14.685Z,10.89
2023-12-24T10:14:41.544Z,10.87
2023-12-24T10:17:08.615Z,10.87
2023-12-24T10:19:38.364Z,11.03
2023-12-24T10:22:09.469Z,10.95
2023-12-24T10:24:41.036Z,11.07
2023-12-24T10:27:12.839Z,11.08
2023-12-24T10:29:40.974Z,11.14
2023-12-24T10:32:11.111Z,11.18
2023-12-24T10:34:38.926Z,11.22
2023-12-24T10:37:23.052Z,11.16
2023-12-24T10:39:52.625Z,11.10
2023-12-24T10:42:19.311Z,11.20
2023-12-24T10:44:46.743Z,11.10
2023-12-24T10:47:13.681Z,11.07
2023-12-24T10:49:40.394Z,11.06
2023-12-24T10:52:06.893Z,11.06
2023-12-24T10:54:34.974Z,11.04
2023-12-24T10:57:07.980Z,10.99
2023-12-24T11:00:03.270Z,11.12
2023-12-24T11:02:31.366Z,11.09
2023-12-24T11:04:58.590Z,11.08
2023-12-24T11:07:34.351Z,11.12
2023-12-24T11:10:06.097Z,11.07
2023-12-24T11:12:38.565Z,11.14
2023-12-24T11:15:08.181Z,11.30
2023-12-24T11:17:40.320Z,11.42
2023-12-24T11:20:19.591Z,11.34
2023-12-24T11:23:04.748Z,11.33
2023-12-24T11:25:48.676Z,11.33
2023-12-24T11:28:24.979Z,11.44
2023-12-24T11:30:51.914Z,11.56
2023-12-24T11:33:46.010Z,11.39
2023-12-24T11:36:14.465Z,11.35
2023-12-24T11:38:43.096Z,11.54
2023-12-24T11:41:17.078Z,11.51
2023-12-24T11:44:01.266Z,11.39
2023-12-24T11:46:29.556Z,11.44
2023-12-24T11:49:02.150Z,11.56
2023-12-24T11:51:30.032Z,11.57
2023-12-24T11:54:02.470Z,11.57
2023-12-24T11:56:30.647Z,11.57
2023-12-24T11:59:01.949Z,11.51
2023-12-24T12:01:37.647Z,11.55
2023-12-24T12:04:06.403Z,11.48
2023-12-24T12:06:35.055Z,11.46
2023-12-24T12:09:07.237Z,11.50
2023-12-24T12:11:34.190Z,11.53
2023-12-24T12:14:02.476Z,11.58
2023-12-24T12:16:30.006Z,11.57
2023-12-24T12:18:58.390Z,11.57
2023-12-24T12:21:24.882Z,11.57
2023-12-24T12:23:51.670Z,11.59
2023-12-24T12:26:18.330Z,11.51
2023-12-24T12:28:45.303Z,11.53
2023-12-24T12:31:12.651Z,11.57
2023-12-24T12:33:39.470Z,11.56
2023-12-24T12:36:08.762Z,11.57
2023-12-24T12:38:35.989Z,11.63
2023-12-24T12:41:02.859Z,11.59
2023-12-24T12:43:29.679Z,11.57
2023-12-24T12:45:56.193Z,11.60
2023-12-24T12:48:22.990Z,11.48
2023-12-24T12:50:50.580Z,11.47
2023-12-24T12:53:27.326Z,11.38
2023-12-24T12:56:02.472Z,11.28
2023-12-24T12:58:29.549Z,11.07
2023-12-24T13:01:00.135Z,10.88
2023-12-24T13:03:27.257Z,10.72
2023-12-24T13:05:58.772Z,10.58
2023-12-24T13:08:26.582Z,10.47
2023-12-24T13:10:54.365Z,10.32
2023-12-24T13:13:25.430Z,10.34
2023-12-24T13:16:13.031Z,10.31
2023-12-24T13:18:40.584Z,10.26
2023-12-24T13:21:11.900Z,10.21
2023-12-24T13:23:39.615Z,10.16
2023-12-24T13:26:06.680Z,10.14
2023-12-24T13:28:35.615Z,10.10
2023-12-24T13:31:04.030Z,10.06
2023-12-24T13:33:31.182Z,10.17
2023-12-24T13:35:57.728Z,10.23
2023-12-24T13:38:24.638Z,10.23
2023-12-24T13:40:53.008Z,10.13
2023-12-24T13:43:20.261Z,10.18
2023-12-24T13:45:47.742Z,10.11
2023-12-24T13:48:14.696Z,10.14
2023-12-24T13:50:43.323Z,10.18
2023-12-24T13:53:19.506Z,10.25
2023-12-24T13:55:58.075Z,10.13
2023-12-24T13:58:25.318Z,10.16
2023-12-24T14:00:52.496Z,10.27
2023-12-24T14:03:23.273Z,10.25
2023-12-24T14:05:51.458Z,10.38
2023-12-24T14:08:18.323Z,10.30
2023-12-24T14:10:45.385Z,10.49
2023-12-24T14:13:12.145Z,10.35
2023-12-24T14:15:39.493Z,10.51
2023-12-24T14:18:06.738Z,10.56
2023-12-24T14:20:34.218Z,10.36
2023-12-24T14:23:01.777Z,10.32
2023-12-24T14:25:28.320Z,10.54
2023-12-24T14:27:55.044Z,10.45
2023-12-24T14:30:22.614Z,10.45
2023-12-24T14:32:49.749Z,10.58
2023-12-24T14:35:16.545Z,10.55
2023-12-24T14:37:43.408Z,10.66
2023-12-24T14:40:10.982Z,10.81
2023-12-24T14:42:38.247Z,10.78
2023-12-24T14:45:05.266Z,10.88
2023-12-24T14:47:32.526Z,10.89
2023-12-24T14:49:59.806Z,10.71
2023-12-24T14:52:27.780Z,10.72
2023-12-24T14:54:57.532Z,10.90
2023-12-24T14:57:27.209Z,10.74
2023-12-24T14:59:56.003Z,10.76
2023-12-24T15:02:27.854Z,10.77
2023-12-24T15:04:56.226Z,10.59
2023-12-24T15:07:24.789Z,10.77
2023-12-24T15:09:51.853Z,10.80
2023-12-24T15:12:18.598Z,10.96
2023-12-24T15:14:45.426Z,10.89
2023-12-24T15:17:15.263Z,10.87
2023-12-24T15:19:44.101Z,10.83
2023-12-24T15:22:10.720Z,10.95
2023-12-24T15:24:37.549Z,10.94
2023-12-24T15:27:04.516Z,10.70
2023-12-24T15:29:31.187Z,10.62
2023-12-24T15:31:58.121Z,10.70
2023-12-24T15:34:25.134Z,10.51
2023-12-24T15:36:52.054Z,10.61
2023-12-24T15:39:18.732Z,10.46
2023-12-24T15:41:45.448Z,10.70
2023-12-24T15:44:12.312Z,10.97
2023-12-24T15:46:39.508Z,10.94
2023-12-24T15:49:06.344Z,10.78
2023-12-24T15:51:36.056Z,10.75
2023-12-24T15:54:04.827Z,10.78
2023-12-24T15:56:31.568Z,10.71
2023-12-24T15:58:59.557Z,10.84
2023-12-24T16:01:29.149Z,11.25
2023-12-24T16:03:56.596Z,11.10
2023-12-24T16:06:23.428Z,10.93
2023-12-24T16:08:54.069Z,11.13
2023-12-24T16:11:20.910Z,10.90
2023-12-24T16:13:47.536Z,10.93
2023-12-24T16:16:14.233Z,11.21
2023-12-24T16:18:41.287Z,11.16
2023-12-24T16:21:08.817Z,11.01
2023-12-24T16:23:35.888Z,10.92
2023-12-24T16:26:03.699Z,10.97
2023-12-24T16:28:30.431Z,11.06
2023-12-24T16:30:57.154Z,11.26
2023-12-24T16:33:24.016Z,11.42
2023-12-24T16:35:51.146Z,11.20
2023-12-24T16:38:17.726Z,11.21
2023-12-24T16:40:44.460Z,11.12
2023-12-24T16:43:11.227Z,11.08
2023-12-24T16:45:38.640Z,10.95
2023-12-24T16:48:05.614Z,10.96
2023-12-24T16:50:34.278Z,11.10
2023-12-24T16:53:01.485Z,11.14
2023-12-24T16:55:28.355Z,11.20
2023-12-24T16:57:55.272Z,11.27
2023-12-24T17:00:22.628Z,11.33
2023-12-24T17:02:49.668Z,11.33
2023-12-24T17:05:16.727Z,11.28
2023-12-24T17:07:43.937Z,11.09
2023-12-24T17:10:11.324Z,11.18
2023-12-24T17:12:38.282Z,10.97
2023-12-24T17:15:06.449Z,11.09
2023-12-24T17:17:34.175Z,11.14
2023-12-24T17:20:00.817Z,11.34
2023-12-24T17:22:27.547Z,11.44
2023-12-24T17:24:54.139Z,11.37
2023-12-24T17:27:20.821Z,11.37
2023-12-24T17:29:47.460Z,11.35
2023-12-24T17:32:14.141Z,11.54
2023-12-24T17:34:41.490Z,11.41
2023-12-24T17:37:08.280Z,11.44
2023-12-24T17:39:35.362Z,11.46
2023-12-24T17:42:02.424Z,11.53
2023-12-24T17:44:29.586Z,11.69
2023-12-24T17:46:56.180Z,11.83
2023-12-24T17:49:23.958Z,11.83
2023-12-24T17:51:50.656Z,11.66
2023-12-24T17:54:17.536Z,11.77
2023-12-24T17:56:44.530Z,11.69
2023-12-24T17:59:11.927Z,11.60
2023-12-24T18:01:38.942Z,11.37
2023-12-24T18:04:06.363Z,11.45
2023-12-24T18:06:33.108Z,11.60
2023-12-24T18:09:03.016Z,11.77
2023-12-24T18:11:32.868Z,12.06
2023-12-24T18:14:00.079Z,11.89
2023-12-24T18:16:26.984Z,11.95
2023-12-24T18:18:53.637Z,11.97
2023-12-24T18:21:21.578Z,12.21
2023-12-24T18:23:48.269Z,11.97
2023-12-24T18:26:16.236Z,12.05
2023-12-24T18:28:43.485Z,11.99
2023-12-24T18:31:10.525Z,12.01
2023-12-24T18:33:37.336Z,11.96
2023-12-24T18:36:04.571Z,12.00
2023-12-24T18:38:32.558Z,12.03
2023-12-24T18:40:59.256Z,11.86
2023-12-24T18:43:26.584Z,12.01
2023-12-24T18:45:53.245Z,11.99
2023-12-24T18:48:21.191Z,11.90
2023-12-24T18:50:48.105Z,11.83
2023-12-24T18:53:14.855Z,11.92
2023-12-24T18:55:41.498Z,12.03
2023-12-24T18:58:08.194Z,11.88
2023-12-24T19:00:34.905Z,11.84
2023-12-24T19:03:01.882Z,11.74
2023-12-24T19:05:28.544Z,11.74
2023-12-24T19:07:55.159Z,11.88
2023-12-24T19:10:21.652Z,11.82
2023-12-24T19:12:48.794Z,11.90
2023-12-24T19:15:15.605Z,11.96
2023-12-24T19:17:42.901Z,11.85
2023-12-24T19:20:10.618Z,11.80
2023-12-24T19:22:37.631Z,11.95
2023-12-24T19:25:07.392Z,11.91
2023-12-24T19:27:56.225Z,11.74
2023-12-24T19:30:23.029Z,11.74
2023-12-24T19:32:50.306Z,11.71
2023-12-24T19:35:17.201Z,11.66
2023-12-24T19:37:44.087Z,11.60
2023-12-24T19:40:11.367Z,11.60
2023-12-24T19:42:39.607Z,11.59
2023-12-24T19:45:06.881Z,11.50
2023-12-24T19:47:34.250Z,11.50
2023-12-24T19:50:00.808Z,11.40
2023-12-24T19:52:36.217Z,11.49
2023-12-24T19:55:08.489Z,11.36
2023-12-24T19:57:35.525Z,11.31
2023-12-24T20:00:01.991Z,11.23
2023-12-24T20:02:29.112Z,11.33
2023-12-24T20:04:55.859Z,11.21
2023-12-24T20:07:23.307Z,11.19
2023-12-24T20:09:49.961Z,11.28
2023-12-24T20:12:16.610Z,11.19
2023-12-24T20:14:43.412Z,11.25
2023-12-24T20:17:10.164Z,11.31
2023-12-24T20:19:37.208Z,11.20
2023-12-24T20:22:03.968Z,11.22
2023-12-24T20:24:30.706Z,11.31
2023-12-24T20:26:57.232Z,11.20
2023-12-24T20:29:23.861Z,11.31
2023-12-24T20:31:50.545Z,11.21
2023-12-24T20:34:18.346Z,11.35
2023-12-24T20:36:44.837Z,11.34
2023-12-24T20:39:11.806Z,11.14
2023-12-24T20:41:44.633Z,11.23
2023-12-24T20:44:17.173Z,11.14
2023-12-24T20:46:46.598Z,11.25
2023-12-24T20:49:14.028Z,11.25
2023-12-24T20:51:42.740Z,11.15
2023-12-24T20:54:09.617Z,11.04
2023-12-24T20:56:36.399Z,11.06
2023-12-24T20:59:03.507Z,11.12
2023-12-24T21:01:33.544Z,11.13
2023-12-24T21:04:01.114Z,11.29
2023-12-24T21:06:28.601Z,11.18
2023-12-24T21:08:57.060Z,11.11
2023-12-24T21:11:23.729Z,11.09
2023-12-24T21:13:50.454Z,11.13
2023-12-24T21:16:17.400Z,11.02
2023-12-24T21:18:44.378Z,11.23
2023-12-24T21:21:11.380Z,11.24
2023-12-24T21:23:43.002Z,11.29
2023-12-24T21:26:10.124Z,11.30
2023-12-24T21:28:39.975Z,11.29
2023-12-24T21:31:11.861Z,11.43
2023-12-24T21:33:38.911Z,11.15
2023-12-24T21:36:05.940Z,10.97
2023-12-24T21:38:33.008Z,11.23
2023-12-24T21:41:00.354Z,11.33
2023-12-24T21:43:27.216Z,11.25
2023-12-24T21:45:53.902Z,11.17
2023-12-24T21:48:21.009Z,11.17
2023-12-24T21:50:48.516Z,11.26
2023-12-24T21:53:17.749Z,11.17
2023-12-24T21:55:44.410Z,11.29
2023-12-24T21:58:11.161Z,11.30
2023-12-24T22:00:45.124Z,11.36
2023-12-24T22:03:24.322Z,11.23
2023-12-24T22:05:56.972Z,11.35
2023-12-24T22:08:24.029Z,11.47
2023-12-24T22:10:50.667Z,11.36
2023-12-24T22:13:17.807Z,11.37
2023-12-24T22:15:44.421Z,11.25
2023-12-24T22:18:11.151Z,11.43
2023-12-24T22:20:37.842Z,11.42
2023-12-24T22:23:05.056Z,11.33
2023-12-24T22:25:31.926Z,11.14
2023-12-24T22:28:01.171Z,11.22
2023-12-24T22:30:28.607Z,11.29
2023-12-24T22:32:56.792Z,11.34
2023-12-24T22:35:24.569Z,11.27
2023-12-24T22:37:52.018Z,11.21
2023-12-24T22:40:19.160Z,11.27
2023-12-24T22:42:47.028Z,11.30
2023-12-24T22:45:13.558Z,11.34
2023-12-24T22:47:40.549Z,11.27
2023-12-24T22:50:07.259Z,11.35
2023-12-24T22:52:34.406Z,11.51
2023-12-24T22:55:01.334Z,11.45
2023-12-24T22:57:28.226Z,11.36
2023-12-24T22:59:54.960Z,11.53
2023-12-24T23:02:21.864Z,11.51
2023-12-24T23:04:48.812Z,11.48
2023-12-24T23:07:15.551Z,11.36
2023-12-24T23:09:42.848Z,11.35
2023-12-24T23:12:09.802Z,11.39
2023-12-24T23:14:36.492Z,11.34
2023-12-24T23:17:03.631Z,11.26
2023-12-24T23:19:34.049Z,11.32
2023-12-24T23:22:01.485Z,11.29
2023-12-24T23:24:28.367Z,11.42
2023-12-24T23:26:55.771Z,11.38
2023-12-24T23:29:23.851Z,11.25
2023-12-24T23:31:50.731Z,11.33
2023-12-24T23:34:17.877Z,11.22
2023-12-24T23:36:44.532Z,11.25
2023-12-24T23:39:13.527Z,11.16
2023-12-24T23:41:40.625Z,11.15
2023-12-24T23:44:07.559Z,11.23
2023-12-24T23:46:34.424Z,11.13
2023-12-24T23:49:01.682Z,11.08
2023-12-24T23:51:28.450Z,11.11
2023-12-24T23:53:56.134Z,11.39
2023-12-24T23:56:23.243Z,11.30
2023-12-24T23:58:50.797Z,11.29
